VOI weather

Voinjama Airport
Voinjama, Lofa County, Liberia

Public forecast

Using degrees Celsius for public forecast. Weather courtesy of forecast.io.

Closest aviation weather report (METAR) to Voinjama Airport

Report is more than 6 hours old.

Closest report is Nzérékoré Airport, 72.7 nm (134.6 km) ESE. Retrieved 2020/07/12 09:00 UTC (2 days ago):

GUNZ 120900Z VRB02KT 9999 OVC010 22/20 Q//// NOSIG

Closest aviation forecast (TAF) to Voinjama Airport

Closest forecast is Lungi International Airport, 204.0 nm (377.8 km) W. Retrieved 2020/07/14 18:00 UTC (3 hours ago):

TAF GFLL 141700Z 1418/1524 24005KT 9999 BKN013 FEW026CB TEMPO 1418/1422 26008KT TEMPO 1503/1508 09006KT 6000 RA BKN010 FEW025CB BECMG 1516/1518 25006KT 9999 BKN013 FEW026CB TEMPO 1520/1524 20012KT 7000 TSRA BKN010 FEW025CB PROB30